Time;durP1;ratioP1;P1;durP2;ratioP2;P2;SDS_P1;SDS_P2;PMS_P1;PMS_P2;Temp;Humidity;BMP_temperature;BMP_pressure;BME280_temperature;BME280_humidity;BME280_pressure;Samples;Min_cycle;Max_cycle;Signal;HPM_P1;HPM_P2
2023/12/15 00:01:13;;;;;;;;;;;;;;;11.24;51.10;101550.31;4918723;28;126881;-71
2023/12/15 00:03:39;;;;;;;;;;;;;;;11.24;50.73;101553.00;4907194;28;98490;-70
2023/12/15 00:06:05;;;;;;;;;;;;;;;11.25;50.63;101549.22;4891797;28;98168;-66
2023/12/15 00:08:32;;;;;;;;;;;;;;;11.24;50.77;101550.31;4903296;28;98313;-71
2023/12/15 00:10:58;;;;;;;;;;;;;;;11.23;50.92;101554.84;4890164;28;104542;-66
2023/12/15 00:13:24;;;;;;;;;;;;;;;11.23;50.82;101554.03;4910463;28;98235;-66
2023/12/15 00:15:50;;;;;;;;;;;;;;;11.23;50.92;101560.25;4921900;28;98058;-66
2023/12/15 00:18:16;;;;;;;;;;;;;;;11.23;50.95;101564.84;4904774;28;107569;-71
2023/12/15 00:20:43;;;;;;;;;;;;;;;11.24;51.16;101574.59;4909917;28;99336;-66
2023/12/15 00:23:09;;;;;;;;;;;;;;;11.23;50.92;101578.34;4891852;28;98121;-70
2023/12/15 00:25:35;;;;;;;;;;;;;;;11.22;51.12;101582.91;4910869;28;103298;-66
2023/12/15 00:28:01;;;;;;;;;;;;;;;11.22;50.87;101588.31;4910359;28;98202;-66
2023/12/15 00:30:26;;;;;;;;;;;;;;;11.23;50.77;101589.94;4921724;28;111233;-66
2023/12/15 00:32:53;;;;;;;;;;;;;;;11.23;51.00;101598.03;4921111;28;98686;-66
2023/12/15 00:35:19;;;;;;;;;;;;;;;11.23;51.08;101597.22;4931562;28;99757;-66
2023/12/15 00:37:45;;;;;;;;;;;;;;;11.22;50.97;101595.59;4927237;28;98385;-66
2023/12/15 00:40:11;;;;;;;;;;;;;;;11.22;50.88;101599.13;4895365;28;123268;-70
2023/12/15 00:42:38;;;;;;;;;;;;;;;11.23;51.00;101605.31;4908699;28;98467;-66
2023/12/15 00:45:04;;;;;;;;;;;;;;;11.22;51.10;101609.91;4919750;28;98730;-66
2023/12/15 00:47:30;;;;;;;;;;;;;;;11.22;50.77;101620.72;4906657;28;99999;-66
2023/12/15 00:49:59;;;;;;;;;;;;;;;11.22;50.94;101620.72;4907823;28;98684;-71
2023/12/15 00:52:25;;;;;;;;;;;;;;;11.23;50.90;101624.22;4924816;28;98168;-70
2023/12/15 00:54:51;;;;;;;;;;;;;;;11.21;50.88;101629.88;4903919;28;98390;-66
2023/12/15 00:57:17;;;;;;;;;;;;;;;11.21;51.06;101637.97;4891953;28;115996;-70
2023/12/15 00:59:43;;;;;;;;;;;;;;;11.22;50.82;101644.19;4927543;28;106317;-66
2023/12/15 01:02:09;;;;;;;;;;;;;;;11.22;51.03;101649.56;4908163;28;98104;-66
2023/12/15 01:04:36;;;;;;;;;;;;;;;11.22;50.88;101661.19;4911121;28;126940;-71
2023/12/15 01:07:02;;;;;;;;;;;;;;;11.21;50.96;101656.03;4909560;28;100312;-66
2023/12/15 01:09:28;;;;;;;;;;;;;;;11.21;50.66;101659.56;4912110;28;100665;-66
2023/12/15 01:11:54;;;;;;;;;;;;;;;11.22;50.99;101654.97;4910757;28;99541;-71
2023/12/15 01:14:20;;;;;;;;;;;;;;;11.22;50.90;101663.06;4920156;28;98014;-70
2023/12/15 01:16:47;;;;;;;;;;;;;;;11.21;50.95;101669.53;4908610;28;100023;-66
2023/12/15 01:19:13;;;;;;;;;;;;;;;11.20;50.77;101671.41;4905321;28;98136;-66
2023/12/15 01:21:39;;;;;;;;;;;;;;;11.20;50.87;101678.69;4923778;28;100347;-71
2023/12/15 01:24:06;;;;;;;;;;;;;;;11.20;50.98;101684.91;4939125;28;98100;-65
2023/12/15 01:26:32;;;;;;;;;;;;;;;11.19;50.97;101685.13;4905250;28;108744;-70
2023/12/15 01:28:58;;;;;;;;;;;;;;;11.18;51.00;101687.03;4906420;28;98515;-66
2023/12/15 01:31:24;;;;;;;;;;;;;;;11.18;50.94;101695.13;4912140;28;98050;-66
2023/12/15 01:33:50;;;;;;;;;;;;;;;11.18;50.67;101695.13;4914176;28;127830;-66
2023/12/15 01:36:16;;;;;;;;;;;;;;;11.16;50.96;101702.66;4920280;28;127159;-70
2023/12/15 01:38:42;;;;;;;;;;;;;;;11.16;51.12;101691.88;4937729;28;99285;-70
2023/12/15 01:41:08;;;;;;;;;;;;;;;11.16;50.75;101702.66;4939105;28;98205;-71
2023/12/15 01:43:34;;;;;;;;;;;;;;;11.15;50.92;101698.28;4888531;28;126889;-70
2023/12/15 01:46:00;;;;;;;;;;;;;;;11.15;50.89;101706.38;4920005;28;109178;-66
2023/12/15 01:48:26;;;;;;;;;;;;;;;11.16;50.96;101710.75;4901516;28;121793;-70
2023/12/15 01:50:52;;;;;;;;;;;;;;;11.14;50.95;101712.03;4936166;28;98238;-65
2023/12/15 01:53:20;;;;;;;;;;;;;;;11.13;50.94;101713.94;4918364;28;126647;-66
2023/12/15 01:55:47;;;;;;;;;;;;;;;11.13;50.75;101721.22;4908210;28;99659;-65
2023/12/15 01:58:13;;;;;;;;;;;;;;;11.12;50.93;101720.38;4908514;28;98178;-65
2023/12/15 02:00:39;;;;;;;;;;;;;;;11.13;50.81;101732.00;4936678;28;115601;-70
2023/12/15 02:03:05;;;;;;;;;;;;;;;11.12;50.72;101741.13;4906742;28;106935;-65
2023/12/15 02:05:31;;;;;;;;;;;;;;;11.12;50.78;101738.44;4923911;28;98493;-65
2023/12/15 02:07:58;;;;;;;;;;;;;;;11.12;50.80;101746.53;4907984;28;127269;-66
2023/12/15 02:10:24;;;;;;;;;;;;;;;11.11;51.08;101750.28;4925466;28;98240;-66
2023/12/15 02:12:50;;;;;;;;;;;;;;;11.10;50.89;101754.88;4918358;28;99397;-71
2023/12/15 02:15:16;;;;;;;;;;;;;;;11.10;50.87;101752.19;4920528;28;99932;-66
2023/12/15 02:17:42;;;;;;;;;;;;;;;11.10;50.83;101754.06;4906872;28;98045;-70
2023/12/15 02:20:08;;;;;;;;;;;;;;;11.10;50.93;101768.38;4941639;28;97879;-66
2023/12/15 02:22:34;;;;;;;;;;;;;;;11.11;50.98;101763.78;4909576;28;99551;-66
2023/12/15 02:25:00;;;;;;;;;;;;;;;11.11;50.82;101766.50;4908048;28;124101;-66
2023/12/15 02:27:26;;;;;;;;;;;;;;;11.10;50.89;101762.16;4908729;28;108885;-70
2023/12/15 02:29:52;;;;;;;;;;;;;;;11.10;50.99;101762.16;4924275;28;98008;-65
2023/12/15 02:32:18;;;;;;;;;;;;;;;11.10;51.11;101754.06;4904025;28;98208;-65
2023/12/15 02:34:44;;;;;;;;;;;;;;;11.09;50.81;101755.94;4905367;28;129695;-70
2023/12/15 02:37:10;;;;;;;;;;;;;;;11.09;50.78;101766.75;4910245;28;98051;-65
2023/12/15 02:39:39;;;;;;;;;;;;;;;11.10;50.85;101762.16;4929093;28;98291;-70
2023/12/15 02:42:06;;;;;;;;;;;;;;;11.09;50.90;101764.03;4914137;28;117475;-70
2023/12/15 02:44:32;;;;;;;;;;;;;;;11.09;50.89;101771.31;4895184;28;100322;-66
2023/12/15 02:46:58;;;;;;;;;;;;;;;11.09;50.96;101780.22;4915314;28;99353;-69
2023/12/15 02:49:24;;;;;;;;;;;;;;;11.10;50.72;101778.34;4913946;28;98903;-66
2023/12/15 02:51:50;;;;;;;;;;;;;;;11.08;50.78;101775.88;4906506;28;127390;-70
2023/12/15 02:54:16;;;;;;;;;;;;;;;11.09;51.05;101772.13;4908365;28;128587;-71
2023/12/15 02:56:42;;;;;;;;;;;;;;;11.10;51.05;101789.97;4909202;28;105157;-67
2023/12/15 02:59:08;;;;;;;;;;;;;;;11.09;50.89;101788.31;4905694;28;102486;-70
2023/12/15 03:01:34;;;;;;;;;;;;;;;11.09;51.10;101795.59;4916001;28;97931;-66
2023/12/15 03:04:00;;;;;;;;;;;;;;;11.10;51.20;101797.25;4925537;28;119415;-70
2023/12/15 03:06:26;;;;;;;;;;;;;;;11.09;51.05;101798.31;4907138;28;128868;-70
2023/12/15 03:08:52;;;;;;;;;;;;;;;11.09;50.86;101799.13;4909044;28;98342;-65
2023/12/15 03:11:18;;;;;;;;;;;;;;;11.09;50.70;101812.63;4906383;28;103225;-65
2023/12/15 03:13:44;;;;;;;;;;;;;;;11.09;50.90;101812.63;4903693;28;129161;-70
2023/12/15 03:16:10;;;;;;;;;;;;;;;11.10;50.89;101821.53;4910533;28;98965;-65
2023/12/15 03:18:37;;;;;;;;;;;;;;;11.10;50.88;101829.63;4891949;28;98399;-70
2023/12/15 03:21:03;;;;;;;;;;;;;;;11.09;50.81;101819.91;4888792;28;98396;-65
2023/12/15 03:23:29;;;;;;;;;;;;;;;11.09;50.84;101828.00;4887094;28;99324;-65
2023/12/15 03:25:55;;;;;;;;;;;;;;;11.08;50.91;101821.75;4904811;28;98503;-65
2023/12/15 03:28:22;;;;;;;;;;;;;;;11.09;50.98;101826.09;4913702;28;102287;-69
2023/12/15 03:30:48;;;;;;;;;;;;;;;11.10;51.15;101833.13;4940738;28;98524;-65
2023/12/15 03:33:14;;;;;;;;;;;;;;;11.09;50.67;101833.38;4911056;28;97920;-69
2023/12/15 03:35:40;;;;;;;;;;;;;;;11.10;51.11;101843.13;4939893;28;98098;-65
2023/12/15 03:38:06;;;;;;;;;;;;;;;11.07;51.06;101842.50;4922451;28;98168;-65
2023/12/15 03:40:32;;;;;;;;;;;;;;;11.08;50.92;101832.53;4912431;28;100133;-65
2023/12/15 03:42:58;;;;;;;;;;;;;;;11.07;50.58;101841.69;4909186;28;100360;-65
2023/12/15 03:45:25;;;;;;;;;;;;;;;11.05;50.88;101852.75;4914659;28;126361;-70
2023/12/15 03:47:51;;;;;;;;;;;;;;;11.05;50.83;101851.94;4901376;28;98104;-65
2023/12/15 03:50:20;;;;;;;;;;;;;;;11.05;50.80;101849.22;4920839;28;98319;-70
2023/12/15 03:52:46;;;;;;;;;;;;;;;11.04;50.69;101853.81;4907268;28;99050;-65
2023/12/15 03:55:12;;;;;;;;;;;;;;;11.02;50.90;101850.50;4900671;28;98238;-66
2023/12/15 03:57:39;;;;;;;;;;;;;;;11.04;50.88;101855.66;4923518;28;98251;-69
2023/12/15 04:00:07;;;;;;;;;;;;;;;11.02;50.88;101864.00;4937086;28;98214;-65
2023/12/15 04:02:34;;;;;;;;;;;;;;;11.02;50.97;101864.00;4924964;28;99862;-66
2023/12/15 04:05:00;;;;;;;;;;;;;;;11.01;51.07;101867.75;4918291;28;99346;-70
2023/12/15 04:07:26;;;;;;;;;;;;;;;11.02;51.10;101869.41;4921108;28;98015;-66
2023/12/15 04:09:52;;;;;;;;;;;;;;;11.01;50.91;101867.75;4912799;28;114151;-66
2023/12/15 04:12:18;;;;;;;;;;;;;;;11.01;51.15;101872.34;4909017;28;128250;-70
2023/12/15 04:14:44;;;;;;;;;;;;;;;11.00;50.66;101876.91;4909949;28;98277;-66
2023/12/15 04:17:10;;;;;;;;;;;;;;;11.00;50.91;101876.06;4923046;28;98278;-66
2023/12/15 04:19:36;;;;;;;;;;;;;;;11.00;50.81;101870.69;4907759;28;100584;-70
2023/12/15 04:22:02;;;;;;;;;;;;;;;10.99;50.97;101872.56;4906292;28;98691;-70
2023/12/15 04:24:28;;;;;;;;;;;;;;;10.98;50.83;101879.03;4912841;28;126014;-71
2023/12/15 04:26:54;;;;;;;;;;;;;;;10.98;51.08;101879.03;4911590;28;98289;-66
2023/12/15 04:29:20;;;;;;;;;;;;;;;10.98;50.79;101883.59;4911418;28;98315;-66
2023/12/15 04:31:46;;;;;;;;;;;;;;;10.98;51.00;101897.09;4942704;28;102365;-70
2023/12/15 04:34:12;;;;;;;;;;;;;;;10.98;50.84;101900.59;4907356;28;100905;-70
2023/12/15 04:36:39;;;;;;;;;;;;;;;10.98;50.84;101897.91;4939006;28;118376;-66
2023/12/15 04:39:06;;;;;;;;;;;;;;;10.98;50.67;101897.09;4909570;28;98517;-66
2023/12/15 04:41:33;;;;;;;;;;;;;;;10.97;50.68;101898.97;4918923;28;98073;-70
2023/12/15 04:43:59;;;;;;;;;;;;;;;10.97;51.06;101898.16;4924270;28;98128;-70
2023/12/15 04:46:29;;;;;;;;;;;;;;;10.98;51.01;101905.19;4918165;28;113628;-66
2023/12/15 04:48:56;;;;;;;;;;;;;;;10.98;50.78;101908.69;4905862;28;108377;-66
2023/12/15 04:51:22;;;;;;;;;;;;;;;10.99;50.94;101914.91;4905381;28;98563;-70
2023/12/15 04:53:48;;;;;;;;;;;;;;;10.98;50.80;101915.97;4888904;28;98722;-66
2023/12/15 04:56:14;;;;;;;;;;;;;;;10.96;50.93;101913.50;4896985;28;98736;-66
2023/12/15 04:58:40;;;;;;;;;;;;;;;10.96;51.00;101929.69;4913662;28;97924;-66
2023/12/15 05:01:12;;;;;;;;;;;;;;;10.96;50.68;101932.38;4905131;28;98113;-70
2023/12/15 05:03:39;;;;;;;;;;;;;;;10.96;51.11;101931.56;4926608;28;98023;-70
2023/12/15 05:06:06;;;;;;;;;;;;;;;10.96;50.86;101937.78;4926257;28;97826;-70
2023/12/15 05:08:31;;;;;;;;;;;;;;;10.96;50.70;101942.34;4940911;28;117058;-70
2023/12/15 05:10:58;;;;;;;;;;;;;;;10.95;50.72;101935.31;4925202;28;102149;-66
2023/12/15 05:13:24;;;;;;;;;;;;;;;10.95;50.70;101946.94;4924927;28;98726;-66
2023/12/15 05:15:49;;;;;;;;;;;;;;;10.95;50.78;101952.34;4910101;28;113314;-66
2023/12/15 05:18:17;;;;;;;;;;;;;;;10.94;50.87;101953.41;4922413;28;101824;-67
2023/12/15 05:20:43;;;;;;;;;;;;;;;10.94;50.79;101960.66;4905523;28;99081;-70
2023/12/15 05:23:11;;;;;;;;;;;;;;;10.94;51.09;101963.38;4903540;28;98136;-70
2023/12/15 05:25:36;;;;;;;;;;;;;;;10.93;50.81;101970.66;4916865;28;98662;-70
2023/12/15 05:28:03;;;;;;;;;;;;;;;10.94;50.98;101972.28;4910163;28;98110;-70
2023/12/15 05:30:29;;;;;;;;;;;;;;;10.94;50.90;101979.56;4909940;28;98288;-70
2023/12/15 05:32:55;;;;;;;;;;;;;;;10.94;51.12;101979.56;4907299;28;123499;-66
2023/12/15 05:35:21;;;;;;;;;;;;;;;10.94;50.61;101984.97;4901588;28;107607;-70
2023/12/15 05:37:49;;;;;;;;;;;;;;;10.93;50.93;101994.94;4930254;28;99613;-70
2023/12/15 05:40:15;;;;;;;;;;;;;;;10.93;50.79;101988.72;4917999;28;105031;-66
2023/12/15 05:42:42;;;;;;;;;;;;;;;10.93;51.11;101994.09;4897608;28;99894;-70
2023/12/15 05:45:08;;;;;;;;;;;;;;;10.91;51.04;101997.03;4931452;28;98649;-69
2023/12/15 05:47:36;;;;;;;;;;;;;;;10.91;50.82;102002.41;4931681;28;121456;-67
2023/12/15 05:50:03;;;;;;;;;;;;;;;10.91;51.15;102007.81;4904495;28;99553;-70
2023/12/15 05:52:29;;;;;;;;;;;;;;;10.90;50.85;102005.34;4901148;28;100491;-66
2023/12/15 05:54:55;;;;;;;;;;;;;;;10.90;50.73;102019.66;4910816;28;115104;-68
2023/12/15 05:57:21;;;;;;;;;;;;;;;10.89;50.89;102017.22;4902385;28;98162;-66
2023/12/15 05:59:47;;;;;;;;;;;;;;;10.88;50.80;102015.53;4929130;28;99243;-70
2023/12/15 06:02:13;;;;;;;;;;;;;;;10.87;50.97;102024.69;4922492;28;99598;-66
2023/12/15 06:04:39;;;;;;;;;;;;;;;10.85;50.81;102027.63;4913562;28;117904;-70
2023/12/15 06:07:05;;;;;;;;;;;;;;;10.83;50.86;102029.72;4925413;28;126827;-70
2023/12/15 06:09:31;;;;;;;;;;;;;;;10.84;50.90;102025.16;4902859;28;98929;-66
2023/12/15 06:11:57;;;;;;;;;;;;;;;10.81;50.66;102029.16;4907958;28;127379;-70
2023/12/15 06:14:23;;;;;;;;;;;;;;;10.79;50.74;102034.75;4911958;28;101402;-70
2023/12/15 06:16:49;;;;;;;;;;;;;;;10.78;50.82;102041.22;4942291;28;100187;-66
2023/12/15 06:19:15;;;;;;;;;;;;;;;10.77;50.98;102052.25;4907245;28;98236;-65
2023/12/15 06:21:41;;;;;;;;;;;;;;;10.74;51.38;102050.81;4909392;28;98105;-66
2023/12/15 06:24:07;;;;;;;;;;;;;;;10.73;50.65;102049.19;4910740;28;102169;-70
2023/12/15 06:26:33;;;;;;;;;;;;;;;10.72;51.04;102052.91;4928447;28;105733;-70
2023/12/15 06:28:59;;;;;;;;;;;;;;;10.71;50.82;102062.06;4909068;28;130944;-66
2023/12/15 06:31:29;;;;;;;;;;;;;;;10.68;51.09;102059.81;4924577;28;128431;-70
2023/12/15 06:33:55;;;;;;;;;;;;;;;10.68;50.88;102059.00;4928170;28;98160;-65
2023/12/15 06:36:21;;;;;;;;;;;;;;;10.67;50.63;102071.66;4930780;28;116170;-66
2023/12/15 06:38:48;;;;;;;;;;;;;;;10.66;50.85;102069.22;4927270;28;100581;-70
2023/12/15 06:41:14;;;;;;;;;;;;;;;10.66;51.26;102077.31;4907507;28;99492;-66
2023/12/15 06:43:43;;;;;;;;;;;;;;;10.66;51.14;102080.00;4910986;28;98235;-69
2023/12/15 06:46:10;;;;;;;;;;;;;;;10.62;50.73;102082.31;4888935;28;99943;-70
2023/12/15 06:48:36;;;;;;;;;;;;;;;10.64;50.90;102084.78;4943007;28;98610;-70
2023/12/15 06:51:03;;;;;;;;;;;;;;;10.63;51.24;102088.53;4923534;28;98329;-66
2023/12/15 06:53:28;;;;;;;;;;;;;;;10.61;50.81;102094.19;4910036;28;98755;-69
2023/12/15 06:55:55;;;;;;;;;;;;;;;10.61;50.96;102093.31;4927209;28;99606;-66
2023/12/15 06:58:21;;;;;;;;;;;;;;;10.61;51.05;102098.72;4939274;28;117567;-66
2023/12/15 07:00:47;;;;;;;;;;;;;;;10.59;50.81;102098.97;4909944;28;101473;-70
2023/12/15 07:03:13;;;;;;;;;;;;;;;10.59;50.91;102112.44;4925877;28;98310;-66
2023/12/15 07:05:39;;;;;;;;;;;;;;;10.59;50.83;102117.00;4908225;28;126175;-70
2023/12/15 07:08:05;;;;;;;;;;;;;;;10.57;50.54;102115.38;4919647;28;111772;-66
2023/12/15 07:10:32;;;;;;;;;;;;;;;10.57;50.62;102123.47;4904858;28;98939;-66
2023/12/15 07:12:58;;;;;;;;;;;;;;;10.58;50.79;102124.28;4927336;28;98264;-69
2023/12/15 07:15:27;;;;;;;;;;;;;;;10.57;50.91;102119.91;4911161;28;130564;-66
2023/12/15 07:17:54;;;;;;;;;;;;;;;10.56;51.28;102127.19;4935478;28;98561;-69
2023/12/15 07:20:20;;;;;;;;;;;;;;;10.57;50.99;102131.56;4936323;28;98260;-65
2023/12/15 07:22:47;;;;;;;;;;;;;;;10.59;51.04;102138.59;4910577;28;98129;-69
2023/12/15 07:25:13;;;;;;;;;;;;;;;10.59;50.96;102143.97;4936549;28;100707;-70
2023/12/15 07:27:39;;;;;;;;;;;;;;;10.60;51.08;102145.63;4919383;28;99956;-69
2023/12/15 07:30:05;;;;;;;;;;;;;;;10.60;50.90;102140.22;4915298;28;127575;-70
2023/12/15 07:32:31;;;;;;;;;;;;;;;10.61;50.54;102147.25;4908242;28;100437;-65
2023/12/15 07:34:58;;;;;;;;;;;;;;;10.62;50.83;102160.53;4902479;28;100119;-70
2023/12/15 07:37:24;;;;;;;;;;;;;;;10.65;50.90;102159.25;4925492;28;100169;-69
2023/12/15 07:39:50;;;;;;;;;;;;;;;10.68;51.01;102159.63;4904803;28;103419;-69
2023/12/15 07:42:15;;;;;;;;;;;;;;;10.70;50.78;102165.63;4922588;28;117245;-69
2023/12/15 07:44:42;;;;;;;;;;;;;;;10.70;50.58;102171.00;4916624;28;98040;-65
2023/12/15 07:47:08;;;;;;;;;;;;;;;10.74;50.73;102180.28;4941739;28;100094;-65
2023/12/15 07:49:34;;;;;;;;;;;;;;;10.76;50.81;102180.06;4923819;28;98220;-69
2023/12/15 07:52:01;;;;;;;;;;;;;;;10.75;50.83;102179.25;4915467;28;98168;-65
2023/12/15 07:54:29;;;;;;;;;;;;;;;10.76;50.75;102178.19;4925613;28;98578;-69
2023/12/15 07:56:55;;;;;;;;;;;;;;;10.78;50.41;102181.47;4914281;28;98362;-65
2023/12/15 07:59:21;;;;;;;;;;;;;;;10.85;50.66;102191.38;4901958;28;116850;-65
2023/12/15 08:01:51;;;;;;;;;;;;;;;10.89;50.73;102187.19;4912212;28;118679;-65
2023/12/15 08:04:17;;;;;;;;;;;;;;;10.97;50.40;102203.88;4920585;28;99583;-65
2023/12/15 08:06:43;;;;;;;;;;;;;;;11.05;50.46;102202.72;4910704;28;98760;-65
2023/12/15 08:09:10;;;;;;;;;;;;;;;11.19;50.23;102208.75;4913287;28;98332;-65
2023/12/15 08:11:36;;;;;;;;;;;;;;;11.47;50.00;102217.03;4910464;28;98215;-69
2023/12/15 08:14:03;;;;;;;;;;;;;;;11.89;49.57;102216.22;4896283;28;98590;-70
2023/12/15 08:16:30;;;;;;;;;;;;;;;12.36;49.44;102205.41;4891092;28;98290;-69
2023/12/15 08:18:57;;;;;;;;;;;;;;;12.55;49.06;102211.50;4904946;28;99084;-69
2023/12/15 08:21:23;;;;;;;;;;;;;;;13.10;48.86;102205.56;4920751;28;98290;-66
2023/12/15 08:23:50;;;;;;;;;;;;;;;13.50;48.60;102209.00;4904375;28;108305;-68
2023/12/15 08:26:23;;;;;;;;;;;;;;;14.12;48.32;102220.84;4870440;28;97858;-66
2023/12/15 08:28:49;;;;;;;;;;;;;;;14.64;48.37;102213.16;4891528;28;98383;-66
2023/12/15 08:31:15;;;;;;;;;;;;;;;15.12;47.92;102218.88;4891012;28;98296;-66
2023/12/15 08:33:42;;;;;;;;;;;;;;;15.07;48.23;102216.94;4889961;28;99754;-66
2023/12/15 08:36:09;;;;;;;;;;;;;;;14.82;48.82;102225.63;4918639;28;99458;-70
2023/12/15 08:38:35;;;;;;;;;;;;;;;14.65;49.17;102224.84;4901800;28;98273;-69
2023/12/15 08:41:02;;;;;;;;;;;;;;;14.60;49.31;102230.22;4906228;28;98647;-66
2023/12/15 08:43:28;;;;;;;;;;;;;;;14.60;49.09;102230.22;4894281;28;98229;-66
2023/12/15 08:45:55;;;;;;;;;;;;;;;14.78;48.91;102229.91;4887295;28;100024;-69
2023/12/15 08:48:21;;;;;;;;;;;;;;;14.66;49.23;102226.50;4887130;28;107580;-65
2023/12/15 08:50:47;;;;;;;;;;;;;;;14.49;49.52;102230.06;4909608;28;105111;-65
2023/12/15 08:53:15;;;;;;;;;;;;;;;14.31;49.66;102241.19;4883555;28;117392;-66
2023/12/15 08:55:41;;;;;;;;;;;;;;;14.15;49.58;102244.75;4905285;28;99585;-69
2023/12/15 08:58:07;;;;;;;;;;;;;;;13.98;49.77;102242.84;4903114;28;98525;-69
2023/12/15 09:00:33;;;;;;;;;;;;;;;13.80;50.28;102247.72;4908476;28;98266;-69
2023/12/15 09:02:59;;;;;;;;;;;;;;;13.60;50.28;102250.91;4885078;28;129011;-66
2023/12/15 09:05:25;;;;;;;;;;;;;;;13.45;50.29;102251.47;4905569;28;98566;-65
2023/12/15 09:07:51;;;;;;;;;;;;;;;13.30;50.09;102252.00;4907140;28;101267;-69
2023/12/15 09:10:18;;;;;;;;;;;;;;;13.24;50.56;102252.94;4876062;28;98052;-66
2023/12/15 09:12:44;;;;;;;;;;;;;;;13.21;50.51;102250.72;4889133;28;98427;-66
2023/12/15 09:15:12;;;;;;;;;;;;;;;13.17;50.37;102244.16;4910851;28;101539;-65
2023/12/15 09:17:39;;;;;;;;;;;;;;;13.19;50.10;102253.66;4909276;28;98060;-69
2023/12/15 09:20:05;;;;;;;;;;;;;;;13.35;50.09;102251.25;4936788;28;110658;-70
2023/12/15 09:22:31;;;;;;;;;;;;;;;13.37;49.78;102249.16;4902594;28;98169;-70
2023/12/15 09:24:57;;;;;;;;;;;;;;;13.34;50.10;102239.63;4927475;28;114461;-70
2023/12/15 09:27:23;;;;;;;;;;;;;;;13.27;50.15;102225.41;4924169;28;106388;-66
2023/12/15 09:29:49;;;;;;;;;;;;;;;13.31;49.91;102239.28;4915949;28;109614;-66
2023/12/15 09:32:15;;;;;;;;;;;;;;;13.70;49.50;102230.22;4907064;28;98267;-66
2023/12/15 09:34:42;;;;;;;;;;;;;;;14.36;48.89;102233.13;4927043;28;102611;-70
2023/12/15 09:37:08;;;;;;;;;;;;;;;14.66;48.82;102229.22;4911379;28;98380;-66
2023/12/15 09:39:34;;;;;;;;;;;;;;;14.79;48.93;102236.97;4922006;28;97863;-70
2023/12/15 09:42:00;;;;;;;;;;;;;;;14.97;48.79;102239.38;4927066;28;98317;-66
2023/12/15 09:44:25;;;;;;;;;;;;;;;15.15;48.74;102237.38;4904507;28;128041;-66
2023/12/15 09:46:51;;;;;;;;;;;;;;;15.25;48.96;102242.94;4902082;28;127968;-70
2023/12/15 09:49:18;;;;;;;;;;;;;;;15.14;49.12;102242.00;4929312;28;98373;-69
2023/12/15 09:51:50;;;;;;;;;;;;;;;15.10;49.37;102251.72;4924070;28;98659;-70
2023/12/15 09:54:17;;;;;;;;;;;;;;;15.09;49.29;102255.53;4928981;28;98248;-66
2023/12/15 09:56:43;;;;;;;;;;;;;;;15.02;49.34;102260.34;4892959;28;104298;-66
2023/12/15 09:59:09;;;;;;;;;;;;;;;15.03;49.39;102269.28;4915624;28;98482;-70
2023/12/15 10:01:37;;;;;;;;;;;;;;;15.09;49.37;102273.69;4912306;28;98128;-66
2023/12/15 10:04:06;;;;;;;;;;;;;;;15.12;49.69;102278.63;4915067;28;98324;-70
2023/12/15 10:06:36;;;;;;;;;;;;;;;15.11;49.52;102283.25;4896437;28;99550;-66
2023/12/15 10:09:02;;;;;;;;;;;;;;;15.07;49.63;102271.25;4908913;28;98135;-70
2023/12/15 10:11:32;;;;;;;;;;;;;;;15.02;49.68;102265.75;4926138;28;98055;-70
2023/12/15 10:13:59;;;;;;;;;;;;;;;15.00;49.61;102269.78;4911491;28;99589;-66
2023/12/15 10:16:28;;;;;;;;;;;;;;;14.93;49.66;102278.97;4913296;28;108080;-66
2023/12/15 10:18:54;;;;;;;;;;;;;;;14.87;49.67;102279.16;4939557;28;98197;-70
2023/12/15 10:21:20;;;;;;;;;;;;;;;14.85;49.74;102281.28;4940940;28;117424;-69
2023/12/15 10:23:46;;;;;;;;;;;;;;;14.82;49.75;102296.19;4924060;28;99360;-66
2023/12/15 10:26:14;;;;;;;;;;;;;;;14.82;49.58;102295.38;4899430;28;98437;-70
2023/12/15 10:28:40;;;;;;;;;;;;;;;14.84;49.64;102290.50;4910693;28;98850;-66
2023/12/15 10:31:07;;;;;;;;;;;;;;;14.87;49.75;102287.28;4926645;28;98085;-66
2023/12/15 10:33:33;;;;;;;;;;;;;;;14.91;49.49;102289.25;4932517;28;99878;-66
2023/12/15 10:36:03;;;;;;;;;;;;;;;15.01;49.37;102282.28;4907907;28;99510;-69
2023/12/15 10:38:29;;;;;;;;;;;;;;;15.07;49.38;102290.25;4930810;28;98317;-69
2023/12/15 10:40:58;;;;;;;;;;;;;;;15.11;49.47;102298.72;4924845;28;99729;-65
2023/12/15 10:43:24;;;;;;;;;;;;;;;15.13;49.56;102299.28;4913483;28;98251;-66
2023/12/15 10:45:53;;;;;;;;;;;;;;;15.16;49.52;102304.19;4923181;28;113587;-65
2023/12/15 10:48:19;;;;;;;;;;;;;;;15.16;49.66;102294.16;4896044;28;98519;-66
2023/12/15 10:50:46;;;;;;;;;;;;;;;15.17;49.47;102295.81;4940078;28;107631;-69
2023/12/15 10:53:15;;;;;;;;;;;;;;;15.15;49.57;102300.66;4916581;28;99106;-65
2023/12/15 10:55:45;;;;;;;;;;;;;;;15.11;49.60;102304.16;4912636;28;98369;-66
2023/12/15 10:58:12;;;;;;;;;;;;;;;15.10;49.75;102313.38;4911792;28;109562;-66
2023/12/15 11:00:38;;;;;;;;;;;;;;;15.07;49.61;102305.72;4903156;28;98256;-66
2023/12/15 11:03:05;;;;;;;;;;;;;;;15.08;49.61;102305.47;4911899;28;98527;-67
2023/12/15 11:05:35;;;;;;;;;;;;;;;15.09;49.45;102295.41;4926559;28;113881;-66
2023/12/15 11:08:01;;;;;;;;;;;;;;;15.12;49.57;102297.63;4914333;28;98823;-69
2023/12/15 11:10:27;;;;;;;;;;;;;;;15.13;49.61;102300.13;4908436;28;100036;-65
2023/12/15 11:12:53;;;;;;;;;;;;;;;15.14;49.55;102301.75;4924907;28;126810;-66
2023/12/15 11:15:19;;;;;;;;;;;;;;;15.13;49.53;102293.84;4901283;28;98040;-66
2023/12/15 11:17:54;;;;;;;;;;;;;;;15.08;49.62;102297.31;4936830;28;98791;-69
2023/12/15 11:20:19;;;;;;;;;;;;;;;15.00;49.88;102299.66;4912522;28;99677;-69
2023/12/15 11:22:59;;;;;;;;;;;;;;;14.90;49.73;102297.66;4940353;28;97986;-66
2023/12/15 11:25:46;;;;;;;;;;;;;;;14.81;49.91;102312.72;4940984;28;98598;-69
2023/12/15 11:28:15;;;;;;;;;;;;;;;14.70;50.13;102311.78;4920018;28;98056;-70
2023/12/15 11:30:44;;;;;;;;;;;;;;;14.58;50.11;102320.03;4928813;28;98570;-66
2023/12/15 11:33:39;;;;;;;;;;;;;;;14.51;50.33;102316.66;4939177;28;98219;-66
2023/12/15 11:36:06;;;;;;;;;;;;;;;14.42;50.10;102318.09;4939681;28;98397;-70
2023/12/15 11:38:33;;;;;;;;;;;;;;;14.34;50.32;102313.91;4913336;28;99374;-65
2023/12/15 11:41:00;;;;;;;;;;;;;;;14.28;50.50;102305.97;4911549;28;100335;-65
2023/12/15 11:43:25;;;;;;;;;;;;;;;14.22;50.35;102307.75;4925068;28;99561;-69
2023/12/15 11:45:53;;;;;;;;;;;;;;;14.19;50.29;102298.25;4907283;28;97992;-69
2023/12/15 11:48:19;;;;;;;;;;;;;;;14.18;50.13;102285.75;4925853;28;98332;-65
2023/12/15 11:50:46;;;;;;;;;;;;;;;14.16;50.24;102285.19;4906858;28;107195;-65
2023/12/15 11:53:12;;;;;;;;;;;;;;;14.14;50.06;102287.31;4913174;28;122000;-69
2023/12/15 11:55:39;;;;;;;;;;;;;;;14.13;50.40;102285.66;4907711;28;102347;-69
2023/12/15 11:58:14;;;;;;;;;;;;;;;14.12;50.03;102278.59;4897502;28;98301;-69
2023/12/15 12:00:39;;;;;;;;;;;;;;;14.09;50.00;102284.53;4944486;28;98047;-65
2023/12/15 12:03:05;;;;;;;;;;;;;;;14.09;50.07;102275.56;4913021;28;107630;-69
2023/12/15 12:05:32;;;;;;;;;;;;;;;14.07;50.39;102280.41;4915087;28;98509;-65
2023/12/15 12:07:59;;;;;;;;;;;;;;;14.09;50.30;102278.28;4908356;28;98212;-69
2023/12/15 12:10:32;;;;;;;;;;;;;;;14.09;50.20;102275.56;4905211;28;99691;-66
2023/12/15 12:12:58;;;;;;;;;;;;;;;14.07;50.17;102283.97;4930300;28;98439;-65
2023/12/15 12:15:24;;;;;;;;;;;;;;;14.03;49.96;102281.97;4910766;28;104717;-69
2023/12/15 12:17:51;;;;;;;;;;;;;;;13.96;50.07;102277.53;4904590;28;98133;-65
2023/12/15 12:20:17;;;;;;;;;;;;;;;13.91;50.20;102284.75;4912278;28;98043;-69
2023/12/15 12:22:44;;;;;;;;;;;;;;;13.86;50.40;102293.63;4909843;28;97888;-68
2023/12/15 12:25:14;;;;;;;;;;;;;;;13.84;50.02;102298.50;4894792;28;98094;-69
2023/12/15 12:27:40;;;;;;;;;;;;;;;13.81;50.25;102298.16;4926607;28;98310;-65
2023/12/15 12:30:10;;;;;;;;;;;;;;;13.80;50.52;102293.81;4937490;28;105202;-69